Home > Products > Valid Products > TAF

000
FTUS45 KSLC 210319 AAB
TAFSLC
TAF AMD
KSLC 210319Z 2103/2206 16009KT P6SM SCT120
     FM210700 15012G20KT P6SM SCT070 BKN090
     FM211500 34010G18KT P6SM -SHRA SCT030 BKN050
     FM211800 34008KT P6SM VCSH BKN050=



000
FTUS45 KSLC 210319 AAB
TAFSLC
TAF AMD
KSLC 210319Z 2103/2206 16009KT P6SM SCT120
     FM210700 15012G20KT P6SM SCT070 BKN090
     FM211500 34010G18KT P6SM -SHRA SCT030 BKN050
     FM211800 34008KT P6SM VCSH BKN050=



000
FTUS45 KSLC 210201 AAA
TAFCDC
TAF AMD
KCDC 210201Z 2102/2124 16007KT P6SM VCSH FEW070 BKN110
     FM210300 VRB04KT P6SM SCT120
     FM211700 22010G20KT P6SM SCT120 BKN150=



000
FTUS45 KSLC 210201 AAA
TAFCDC
TAF AMD
KCDC 210201Z 2102/2124 16007KT P6SM VCSH FEW070 BKN110
     FM210300 VRB04KT P6SM SCT120
     FM211700 22010G20KT P6SM SCT120 BKN150=



000
FTUS45 KSLC 210201 AAA
TAFCDC
TAF AMD
KCDC 210201Z 2102/2124 16007KT P6SM VCSH FEW070 BKN110
     FM210300 VRB04KT P6SM SCT120
     FM211700 22010G20KT P6SM SCT120 BKN150=



000
FTUS45 KSLC 202329
TAFOGD
TAF
KOGD 202329Z 2100/2124 22007KT P6SM SKC
     FM210800 16012G18KT P6SM SCT120
     FM211400 29010G18KT P6SM -RA SCT030 BKN050
     FM211700 33007KT P6SM VCSH BKN050=



000
FTUS45 KSLC 202329
TAFLGU
TAF
KLGU 202329Z 2100/2124 VRB05KT P6SM SCT120
     FM210700 20006KT P6SM BKN080
     FM211400 27007KT P6SM -SHRA SCT040 BKN050
     FM211800 30010KT P6SM VCSH SCT040 BKN050=



000
FTUS45 KSLC 202329
TAFENV
TAF
KENV 202329Z 2100/2124 16008KT P6SM SCT150
     FM211100 29015G25KT P6SM VCSH SCT080 BKN120
     FM211500 31010G18KT P6SM SCT120
      AMD LTD TO CLD VIS AND WIND=



000
FTUS45 KSLC 202329
TAFSGU
TAF
KSGU 202329Z 2100/2124 VRB05KT P6SM SCT120
      AMD LTD TO CLD VIS AND WIND=



000
FTUS45 KSLC 202329
TAFBCE
TAF
KBCE 202329Z 2100/2124 16011KT P6SM VCSH SCT070 SCT120
     FM210300 17005KT P6SM SCT120
     FM211700 24010G18KT P6SM SCT060 BKN120=



000
FTUS45 KSLC 202329
TAFSLC
TAF
KSLC 202329Z 2100/2206 19010KT P6SM FEW090 FEW120
     FM210300 16009KT P6SM SCT120
     FM210700 15012G20KT P6SM SCT070 BKN090
     FM211500 34010G18KT P6SM -RA SCT030 BKN050
     FM211800 34008KT P6SM VCSH BKN050=



000
FTUS45 KSLC 202329
TAFPVU
TAF
KPVU 202329Z 2100/2124 VRB04KT P6SM SCT120
     FM210300 13006KT P6SM SCT120
     FM210600 14008KT P6SM VCSH SCT070 BKN090
     FM211600 34010G18KT P6SM -SHRA SCT030 BKN060
     FM212100 34010KT P6SM VCSH SCT030 BKN060
      AMD LTD TO CLD VIS AND WIND=



000
FTUS45 KSLC 202329
TAFCDC
TAF
KCDC 202329Z 2100/2124 21010G20KT P6SM VCSH FEW070 BKN110
     FM210300 VRB04KT P6SM SCT120
     FM211700 22010G20KT P6SM SCT120 BKN150=



000
FTUS45 KSLC 202329
TAFPVU
TAF
KPVU 202329Z 2100/2124 VRB04KT P6SM SCT120
     FM210300 13006KT P6SM SCT120
     FM210600 14008KT P6SM VCSH SCT070 BKN090
     FM211600 34010G18KT P6SM -SHRA SCT030 BKN060
     FM212100 34010KT P6SM VCSH SCT030 BKN060
      AMD LTD TO CLD VIS AND WIND=



000
FTUS45 KSLC 202329
TAFLGU
TAF
KLGU 202329Z 2100/2124 VRB05KT P6SM SCT120
     FM210700 20006KT P6SM BKN080
     FM211400 27007KT P6SM -SHRA SCT040 BKN050
     FM211800 30010KT P6SM VCSH SCT040 BKN050=



000
FTUS45 KSLC 202329
TAFOGD
TAF
KOGD 202329Z 2100/2124 22007KT P6SM SKC
     FM210800 16012G18KT P6SM SCT120
     FM211400 29010G18KT P6SM -RA SCT030 BKN050
     FM211700 33007KT P6SM VCSH BKN050=



000
FTUS45 KSLC 202329
TAFSLC
TAF
KSLC 202329Z 2100/2206 19010KT P6SM FEW090 FEW120
     FM210300 16009KT P6SM SCT120
     FM210700 15012G20KT P6SM SCT070 BKN090
     FM211500 34010G18KT P6SM -RA SCT030 BKN050
     FM211800 34008KT P6SM VCSH BKN050=



000
FTUS45 KSLC 202329
TAFENV
TAF
KENV 202329Z 2100/2124 16008KT P6SM SCT150
     FM211100 29015G25KT P6SM VCSH SCT080 BKN120
     FM211500 31010G18KT P6SM SCT120
      AMD LTD TO CLD VIS AND WIND=



000
FTUS45 KSLC 202329
TAFSGU
TAF
KSGU 202329Z 2100/2124 VRB05KT P6SM SCT120
      AMD LTD TO CLD VIS AND WIND=



000
FTUS45 KSLC 202329
TAFCDC
TAF
KCDC 202329Z 2100/2124 21010G20KT P6SM VCSH FEW070 BKN110
     FM210300 VRB04KT P6SM SCT120
     FM211700 22010G20KT P6SM SCT120 BKN150=



000
FTUS45 KSLC 202329
TAFBCE
TAF
KBCE 202329Z 2100/2124 16011KT P6SM VCSH SCT070 SCT120
     FM210300 17005KT P6SM SCT120
     FM211700 24010G18KT P6SM SCT060 BKN120=



000
FTUS45 KSLC 202252 AAC
TAFSLC
TAF AMD
KSLC 202252Z 2023/2124 19010KT P6SM FEW090 FEW120
     FM210300 16009KT P6SM SCT120
     FM210700 15012G20KT P6SM SCT070 BKN090
     FM211500 34010G18KT 6SM -RA SCT030 BKN050
     FM211800 34008KT P6SM VCSH BKN050=



000
FTUS45 KSLC 202252 AAC
TAFSLC
TAF AMD
KSLC 202252Z 2023/2124 19010KT P6SM FEW090 FEW120
     FM210300 16009KT P6SM SCT120
     FM210700 15012G20KT P6SM SCT070 BKN090
     FM211500 34010G18KT 6SM -RA SCT030 BKN050
     FM211800 34008KT P6SM VCSH BKN050=



000
FTUS45 KSLC 202252 AAC
TAFSLC
TAF AMD
KSLC 202252Z 2023/2124 19010KT P6SM FEW090 FEW120
     FM210300 16009KT P6SM SCT120
     FM210700 15012G20KT P6SM SCT070 BKN090
     FM211500 34010G18KT 6SM -RA SCT030 BKN050
     FM211800 34008KT P6SM VCSH BKN050=



000
FTUS45 KSLC 202252 AAC
TAFSLC
TAF AMD
KSLC 202252Z 2023/2124 19010KT P6SM FEW090 FEW120
     FM210300 16009KT P6SM SCT120
     FM210700 15012G20KT P6SM SCT070 BKN090
     FM211500 34010G18KT 6SM -RA SCT030 BKN050
     FM211800 34008KT P6SM VCSH BKN050=



000
FTUS45 KSLC 202135 AAB
TAFSLC
TAF AMD
KSLC 202135Z 2022/2124 19012KT P6SM FEW090 FEW120
     FM202230 30007KT P6SM FEW090 FEW120
     FM210300 16009KT P6SM SCT120
     FM210700 15012G20KT P6SM SCT070 BKN090
     FM211500 34010G18KT 6SM -RA SCT030 BKN050
     FM211800 34008KT P6SM VCSH BKN050=



000
FTUS45 KSLC 202135 AAB
TAFSLC
TAF AMD
KSLC 202135Z 2022/2124 19012KT P6SM FEW090 FEW120
     FM202230 30007KT P6SM FEW090 FEW120
     FM210300 16009KT P6SM SCT120
     FM210700 15012G20KT P6SM SCT070 BKN090
     FM211500 34010G18KT 6SM -RA SCT030 BKN050
     FM211800 34008KT P6SM VCSH BKN050=



000
FTUS45 KSLC 202135 AAB
TAFSLC
TAF AMD
KSLC 202135Z 2022/2124 19012KT P6SM FEW090 FEW120
     FM202230 30007KT P6SM FEW090 FEW120
     FM210300 16009KT P6SM SCT120
     FM210700 15012G20KT P6SM SCT070 BKN090
     FM211500 34010G18KT 6SM -RA SCT030 BKN050
     FM211800 34008KT P6SM VCSH BKN050=



000
FTUS45 KSLC 202135 AAB
TAFSLC
TAF AMD
KSLC 202135Z 2022/2124 19012KT P6SM FEW090 FEW120
     FM202230 30007KT P6SM FEW090 FEW120
     FM210300 16009KT P6SM SCT120
     FM210700 15012G20KT P6SM SCT070 BKN090
     FM211500 34010G18KT 6SM -RA SCT030 BKN050
     FM211800 34008KT P6SM VCSH BKN050=



000
FTUS45 KSLC 202134 AAA
TAFBCE
TAF AMD
KBCE 202134Z 2022/2118 16011KT P6SM VCSH SCT070 SCT120
     FM210300 17005KT P6SM SCT120
     FM211700 24010G18KT P6SM SCT060 BKN120=



000
FTUS45 KSLC 202134 AAA
TAFBCE
TAF AMD
KBCE 202134Z 2022/2118 16011KT P6SM VCSH SCT070 SCT120
     FM210300 17005KT P6SM SCT120
     FM211700 24010G18KT P6SM SCT060 BKN120=



000
FTUS45 KSLC 202134 AAA
TAFCDC
TAF AMD
KCDC 202134Z 2022/2118 21010G20KT P6SM VCSH FEW070 BKN110
     FM210300 VRB04KT P6SM SCT120
     FM211700 22010G20KT P6SM SCT120 BKN150=



000
FTUS45 KSLC 202134 AAA
TAFCDC
TAF AMD
KCDC 202134Z 2022/2118 21010G20KT P6SM VCSH FEW070 BKN110
     FM210300 VRB04KT P6SM SCT120
     FM211700 22010G20KT P6SM SCT120 BKN150=



000
FTUS45 KSLC 202134 AAA
TAFCDC
TAF AMD
KCDC 202134Z 2022/2118 21010G20KT P6SM VCSH FEW070 BKN110
     FM210300 VRB04KT P6SM SCT120
     FM211700 22010G20KT P6SM SCT120 BKN150=



000
FTUS45 KSLC 202134 AAA
TAFBCE
TAF AMD
KBCE 202134Z 2022/2118 16011KT P6SM VCSH SCT070 SCT120
     FM210300 17005KT P6SM SCT120
     FM211700 24010G18KT P6SM SCT060 BKN120=



000
FTUS45 KSLC 202134 AAA
TAFBCE
TAF AMD
KBCE 202134Z 2022/2118 16011KT P6SM VCSH SCT070 SCT120
     FM210300 17005KT P6SM SCT120
     FM211700 24010G18KT P6SM SCT060 BKN120=



000
FTUS45 KSLC 202059 AAA
TAFSLC
TAF AMD
KSLC 202059Z 2021/2124 19012KT P6SM FEW090 FEW120
     FM202130 30007KT P6SM FEW090 FEW120
     FM210300 16009KT P6SM SCT120
     FM210700 15012G20KT P6SM SCT070 BKN090
     FM211500 34010G18KT 6SM -RA SCT030 BKN050
     FM211800 34008KT P6SM VCSH BKN050=



000
FTUS45 KSLC 202059 AAA
TAFSLC
TAF AMD
KSLC 202059Z 2021/2124 19012KT P6SM FEW090 FEW120
     FM202130 30007KT P6SM FEW090 FEW120
     FM210300 16009KT P6SM SCT120
     FM210700 15012G20KT P6SM SCT070 BKN090
     FM211500 34010G18KT 6SM -RA SCT030 BKN050
     FM211800 34008KT P6SM VCSH BKN050=



000
FTUS45 KSLC 201735
TAFCDC
TAF
KCDC 201735Z 2018/2118 VRB04KT P6SM SCT120
     FM201800 22008KT P6SM SCT150
     FM210300 VRB04KT P6SM SCT120
     FM211700 22010G20KT P6SM SCT120 BKN150=



000
FTUS45 KSLC 201735
TAFSLC
TAF
KSLC 201735Z 2018/2124 14012KT P6SM SKC
     FM202100 33007KT P6SM SCT180
     FM210300 16009KT P6SM SCT120
     FM210700 15012G20KT P6SM SCT070 BKN090
     FM211500 34010G18KT 6SM -RA SCT030 BKN050
     FM211800 34008KT P6SM VCSH BKN050=



000
FTUS45 KSLC 201735
TAFOGD
TAF
KOGD 201735Z 2018/2118 22007KT P6SM SKC
     FM210800 16012G18KT P6SM SCT120
     FM211400 29010G18KT 6SM -RA SCT030 BKN050
     FM211700 33007KT P6SM VCSH BKN050=



000
FTUS45 KSLC 201735
TAFPVU
TAF
KPVU 201735Z 2018/2118 VRB04KT P6SM SCT120
     FM210300 13006KT P6SM SCT120
     FM210600 14008KT P6SM VCSH SCT070 BKN090
     FM211600 34010G18KT P6SM -SHRA SCT030 BKN060
      AMD LTD TO CLD VIS AND WIND=



000
FTUS45 KSLC 201735
TAFLGU
TAF
KLGU 201735Z 2018/2118 VRB05KT P6SM SCT120
     FM210700 20006KT P6SM BKN080
     FM211400 27007KT P6SM -SHRA SCT040 BKN050=



000
FTUS45 KSLC 201735
TAFPVU
TAF
KPVU 201735Z 2018/2118 VRB04KT P6SM SCT120
     FM210300 13006KT P6SM SCT120
     FM210600 14008KT P6SM VCSH SCT070 BKN090
     FM211600 34010G18KT P6SM -SHRA SCT030 BKN060
      AMD LTD TO CLD VIS AND WIND=



000
FTUS45 KSLC 201735
TAFCDC
TAF
KCDC 201735Z 2018/2118 VRB04KT P6SM SCT120
     FM201800 22008KT P6SM SCT150
     FM210300 VRB04KT P6SM SCT120
     FM211700 22010G20KT P6SM SCT120 BKN150=



000
FTUS45 KSLC 201735
TAFOGD
TAF
KOGD 201735Z 2018/2118 22007KT P6SM SKC
     FM210800 16012G18KT P6SM SCT120
     FM211400 29010G18KT 6SM -RA SCT030 BKN050
     FM211700 33007KT P6SM VCSH BKN050=



000
FTUS45 KSLC 201735
TAFSLC
TAF
KSLC 201735Z 2018/2124 14012KT P6SM SKC
     FM202100 33007KT P6SM SCT180
     FM210300 16009KT P6SM SCT120
     FM210700 15012G20KT P6SM SCT070 BKN090
     FM211500 34010G18KT 6SM -RA SCT030 BKN050
     FM211800 34008KT P6SM VCSH BKN050=



000
FTUS45 KSLC 201735
TAFENV
TAF
KENV 201735Z 2018/2118 VRB05KT P6SM SKC
     FM202100 16008KT P6SM SCT150
     FM211100 29015G25KT P6SM VCSH SCT080 BKN120
     FM211500 31010G18KT P6SM SCT120
      AMD LTD TO CLD VIS AND WIND=



000
FTUS45 KSLC 201735
TAFBCE
TAF
KBCE 201735Z 2018/2118 16011KT P6SM SCT120
     FM210300 17005KT P6SM SCT120
     FM211700 24010G18KT P6SM SCT060 BKN120=



000
FTUS45 KSLC 201735
TAFSGU
TAF
KSGU 201735Z 2018/2118 VRB05KT P6SM SCT120
      AMD LTD TO CLD VIS AND WIND=



000
FTUS45 KSLC 201735
TAFLGU
TAF
KLGU 201735Z 2018/2118 VRB05KT P6SM SCT120
     FM210700 20006KT P6SM BKN080
     FM211400 27007KT P6SM -SHRA SCT040 BKN050=



000
FTUS45 KSLC 201735
TAFSGU
TAF
KSGU 201735Z 2018/2118 VRB05KT P6SM SCT120
      AMD LTD TO CLD VIS AND WIND=



000
FTUS45 KSLC 201735
TAFENV
TAF
KENV 201735Z 2018/2118 VRB05KT P6SM SKC
     FM202100 16008KT P6SM SCT150
     FM211100 29015G25KT P6SM VCSH SCT080 BKN120
     FM211500 31010G18KT P6SM SCT120
      AMD LTD TO CLD VIS AND WIND=



000
FTUS45 KSLC 201735
TAFBCE
TAF
KBCE 201735Z 2018/2118 16011KT P6SM SCT120
     FM210300 17005KT P6SM SCT120
     FM211700 24010G18KT P6SM SCT060 BKN120=



000
FTUS45 KSLC 201503 AAA
TAFSLC
TAF AMD
KSLC 201503Z 2015/2118 14010KT P6SM SKC
     FM202100 33007KT P6SM SCT180
     FM210300 15012G20KT P6SM FEW080 SCT150
     FM211500 34010G18KT 6SM -RA SCT030 BKN050=



000
FTUS45 KSLC 201503 AAA
TAFSLC
TAF AMD
KSLC 201503Z 2015/2118 14010KT P6SM SKC
     FM202100 33007KT P6SM SCT180
     FM210300 15012G20KT P6SM FEW080 SCT150
     FM211500 34010G18KT 6SM -RA SCT030 BKN050=



000
FTUS45 KSLC 201120
TAFENV
TAF
KENV 201120Z 2012/2112 VRB05KT P6SM SKC
     FM202100 16008KT P6SM SCT150
     FM211000 29015G25KT P6SM VCSH SCT080 BKN120
      AMD LTD TO CLD VIS AND WIND=



000
FTUS45 KSLC 201120
TAFSGU
TAF
KSGU 201120Z 2012/2112 VRB05KT P6SM SCT120
      AMD LTD TO CLD VIS AND WIND=



000
FTUS45 KSLC 201120
TAFPVU
TAF
KPVU 201120Z 2012/2112 VRB04KT P6SM SCT120
      AMD LTD TO CLD VIS AND WIND=



000
FTUS45 KSLC 201120
TAFLGU
TAF
KLGU 201120Z 2012/2112 VRB05KT P6SM SCT120=



000
FTUS45 KSLC 201120
TAFCDC
TAF
KCDC 201120Z 2012/2112 VRB04KT P6SM SCT120
     FM201800 22008KT P6SM SCT150
     FM210300 VRB04KT P6SM SCT120=



000
FTUS45 KSLC 201120
TAFSLC
TAF
KSLC 201120Z 2012/2118 15006KT P6SM SKC
     FM202100 33007KT P6SM SCT180
     FM210300 15012G20KT P6SM SCT150=



000
FTUS45 KSLC 201120
TAFENV
TAF
KENV 201120Z 2012/2112 VRB05KT P6SM SKC
     FM202100 16008KT P6SM SCT150
     FM211000 29015G25KT P6SM VCSH SCT080 BKN120
      AMD LTD TO CLD VIS AND WIND=



000
FTUS45 KSLC 201120
TAFLGU
TAF
KLGU 201120Z 2012/2112 VRB05KT P6SM SCT120=



000
FTUS45 KSLC 201120
TAFSLC
TAF
KSLC 201120Z 2012/2118 15006KT P6SM SKC
     FM202100 33007KT P6SM SCT180
     FM210300 15012G20KT P6SM SCT150=



000
FTUS45 KSLC 201120
TAFBCE
TAF
KBCE 201120Z 2012/2112 26006KT P6SM FEW120
     FM201500 14008KT P6SM SCT120
     FM210300 17005KT P6SM SCT120=



000
FTUS45 KSLC 201120
TAFOGD
TAF
KOGD 201120Z 2012/2112 17007KT P6SM SKC
     FM210800 17012G20KT P6SM SCT120=



000
FTUS45 KSLC 201120
TAFBCE
TAF
KBCE 201120Z 2012/2112 26006KT P6SM FEW120
     FM201500 14008KT P6SM SCT120
     FM210300 17005KT P6SM SCT120=



000
FTUS45 KSLC 201120
TAFSGU
TAF
KSGU 201120Z 2012/2112 VRB05KT P6SM SCT120
      AMD LTD TO CLD VIS AND WIND=



000
FTUS45 KSLC 201120
TAFCDC
TAF
KCDC 201120Z 2012/2112 VRB04KT P6SM SCT120
     FM201800 22008KT P6SM SCT150
     FM210300 VRB04KT P6SM SCT120=



000
FTUS45 KSLC 201120
TAFPVU
TAF
KPVU 201120Z 2012/2112 VRB04KT P6SM SCT120
      AMD LTD TO CLD VIS AND WIND=



000
FTUS45 KSLC 201120
TAFOGD
TAF
KOGD 201120Z 2012/2112 17007KT P6SM SKC
     FM210800 17012G20KT P6SM SCT120=



000
FTUS45 KSLC 200905 AAA
TAFSLC
TAF AMD
KSLC 200905Z 2009/2112 15006KT P6SM SKC
     FM202100 33007KT P6SM SCT180
     FM210300 15007KT P6SM SCT150=



000
FTUS45 KSLC 200905 AAA
TAFSLC
TAF AMD
KSLC 200905Z 2009/2112 15006KT P6SM SKC
     FM202100 33007KT P6SM SCT180
     FM210300 15007KT P6SM SCT150=



000
FTUS45 KSLC 200527
TAFBCE
TAF
KBCE 200527Z 2006/2106 26006KT P6SM FEW120
     FM201500 14008KT P6SM SKC
     FM210300 17005KT P6SM SCT120=



000
FTUS45 KSLC 200527
TAFCDC
TAF
KCDC 200527Z 2006/2106 VRB04KT P6SM SCT120
     FM201800 22008KT P6SM SKC
     FM210300 VRB04KT P6SM SKC=



000
FTUS45 KSLC 200527
TAFSGU
TAF
KSGU 200527Z 2006/2106 VRB05KT P6SM SCT120
      AMD LTD TO CLD VIS AND WIND=



000
FTUS45 KSLC 200527
TAFSLC
TAF
KSLC 200527Z 2006/2112 15006KT P6SM SKC
     FM202100 33007KT P6SM SCT180
     FM210300 15007KT P6SM SCT150=



000
FTUS45 KSLC 200527
TAFLGU
TAF
KLGU 200527Z 2006/2106 VRB05KT P6SM SKC=



000
FTUS45 KSLC 200527
TAFENV
TAF
KENV 200527Z 2006/2106 VRB05KT P6SM SKC
      AMD LTD TO CLD VIS AND WIND=



000
FTUS45 KSLC 200527
TAFOGD
TAF
KOGD 200527Z 2006/2106 17007KT P6SM SKC=



000
FTUS45 KSLC 200527
TAFOGD
TAF
KOGD 200527Z 2006/2106 17007KT P6SM SKC=



000
FTUS45 KSLC 200527
TAFSGU
TAF
KSGU 200527Z 2006/2106 VRB05KT P6SM SCT120
      AMD LTD TO CLD VIS AND WIND=



000
FTUS45 KSLC 200527
TAFCDC
TAF
KCDC 200527Z 2006/2106 VRB04KT P6SM SCT120
     FM201800 22008KT P6SM SKC
     FM210300 VRB04KT P6SM SKC=



000
FTUS45 KSLC 200527
TAFBCE
TAF
KBCE 200527Z 2006/2106 26006KT P6SM FEW120
     FM201500 14008KT P6SM SKC
     FM210300 17005KT P6SM SCT120=



000
FTUS45 KSLC 200527
TAFSLC
TAF
KSLC 200527Z 2006/2112 15006KT P6SM SKC
     FM202100 33007KT P6SM SCT180
     FM210300 15007KT P6SM SCT150=



000
FTUS45 KSLC 200527
TAFPVU
TAF
KPVU 200527Z 2006/2106 VRB04KT P6SM SKC
      AMD LTD TO CLD VIS AND WIND=



000
FTUS45 KSLC 200527
TAFBCE
TAF
KBCE 200527Z 2006/2106 26006KT P6SM FEW120
     FM201500 14008KT P6SM SKC
     FM210300 17005KT P6SM SCT120=



000
FTUS45 KSLC 200527
TAFPVU
TAF
KPVU 200527Z 2006/2106 VRB04KT P6SM SKC
      AMD LTD TO CLD VIS AND WIND=



000
FTUS45 KSLC 200527
TAFENV
TAF
KENV 200527Z 2006/2106 VRB05KT P6SM SKC
      AMD LTD TO CLD VIS AND WIND=



000
FTUS45 KSLC 200527
TAFLGU
TAF
KLGU 200527Z 2006/2106 VRB05KT P6SM SKC=



000
FTUS45 KSLC 200527
TAFOGD
TAF
KOGD 200527Z 2006/2106 17007KT P6SM SKC=



000
FTUS45 KSLC 200527
TAFSGU
TAF
KSGU 200527Z 2006/2106 VRB05KT P6SM SCT120
      AMD LTD TO CLD VIS AND WIND=



000
FTUS45 KSLC 200527
TAFLGU
TAF
KLGU 200527Z 2006/2106 VRB05KT P6SM SKC=



000
FTUS45 KSLC 200527
TAFENV
TAF
KENV 200527Z 2006/2106 VRB05KT P6SM SKC
      AMD LTD TO CLD VIS AND WIND=



000
FTUS45 KSLC 200527
TAFCDC
TAF
KCDC 200527Z 2006/2106 VRB04KT P6SM SCT120
     FM201800 22008KT P6SM SKC
     FM210300 VRB04KT P6SM SKC=



000
FTUS45 KSLC 200527
TAFPVU
TAF
KPVU 200527Z 2006/2106 VRB04KT P6SM SKC
      AMD LTD TO CLD VIS AND WIND=



000
FTUS45 KSLC 200527
TAFSLC
TAF
KSLC 200527Z 2006/2112 15006KT P6SM SKC
     FM202100 33007KT P6SM SCT180
     FM210300 15007KT P6SM SCT150=



000
FTUS45 KSLC 200248 AAA
TAFSLC
TAF AMD
KSLC 200248Z 2003/2106 15006KT P6SM SKC
     FM202000 33007KT P6SM SCT180=



000
FTUS45 KSLC 200248 AAA
TAFSLC
TAF AMD
KSLC 200248Z 2003/2106 15006KT P6SM SKC
     FM202000 33007KT P6SM SCT180=



000
FTUS45 KSLC 192320
TAFPVU
TAF
KPVU 192320Z 2000/2024 VRB04KT P6SM SKC
      AMD LTD TO CLD VIS AND WIND=



000
FTUS45 KSLC 192320
TAFSLC
TAF
KSLC 192320Z 2000/2106 33007KT P6SM SKC
     FM200300 15006KT P6SM SKC
     FM202000 33007KT P6SM SCT180=



000
FTUS45 KSLC 192320
TAFCDC
TAF
KCDC 192320Z 2000/2024 36004KT P6SM SCT120
     FM200100 12005KT P6SM SCT120
     FM201800 22008KT P6SM SKC=



000
FTUS45 KSLC 192320
TAFBCE
TAF
KBCE 192320Z 2000/2024 VRB05KT P6SM SCT120
     FM200300 26006KT P6SM FEW120
     FM201500 14008KT P6SM SKC=



000
FTUS45 KSLC 192320
TAFCDC
TAF
KCDC 192320Z 2000/2024 36004KT P6SM SCT120
     FM200100 12005KT P6SM SCT120
     FM201800 22008KT P6SM SKC=



000
FTUS45 KSLC 192320
TAFENV
TAF
KENV 192320Z 2000/2024 VRB05KT P6SM SKC
      AMD LTD TO CLD VIS AND WIND=



000
FTUS45 KSLC 192320
TAFSGU
TAF
KSGU 192320Z 2000/2024 VRB05KT P6SM SCT120
      AMD LTD TO CLD VIS AND WIND=



000
FTUS45 KSLC 192320
TAFOGD
TAF
KOGD 192320Z 2000/2024 VRB05KT P6SM SKC
     FM200200 17007KT P6SM SKC
     FM202000 VRB04KT P6SM SKC=



000
FTUS45 KSLC 192320
TAFPVU
TAF
KPVU 192320Z 2000/2024 VRB04KT P6SM SKC
      AMD LTD TO CLD VIS AND WIND=



000
FTUS45 KSLC 192320
TAFLGU
TAF
KLGU 192320Z 2000/2024 VRB05KT P6SM SKC
     FM201200 00000KT P6SM VCFG SCT002
     FM201400 VRB04KT P6SM SKC=



000
FTUS45 KSLC 192320
TAFSLC
TAF
KSLC 192320Z 2000/2106 33007KT P6SM SKC
     FM200300 15006KT P6SM SKC
     FM202000 33007KT P6SM SCT180=



000
FTUS45 KSLC 192320
TAFENV
TAF
KENV 192320Z 2000/2024 VRB05KT P6SM SKC
      AMD LTD TO CLD VIS AND WIND=



000
FTUS45 KSLC 192320
TAFLGU
TAF
KLGU 192320Z 2000/2024 VRB05KT P6SM SKC
     FM201200 00000KT P6SM VCFG SCT002
     FM201400 VRB04KT P6SM SKC=



000
FTUS45 KSLC 192320
TAFSGU
TAF
KSGU 192320Z 2000/2024 VRB05KT P6SM SCT120
      AMD LTD TO CLD VIS AND WIND=



000
FTUS45 KSLC 192320
TAFBCE
TAF
KBCE 192320Z 2000/2024 VRB05KT P6SM SCT120
     FM200300 26006KT P6SM FEW120
     FM201500 14008KT P6SM SKC=



000
FTUS45 KSLC 192320
TAFOGD
TAF
KOGD 192320Z 2000/2024 VRB05KT P6SM SKC
     FM200200 17007KT P6SM SKC
     FM202000 VRB04KT P6SM SKC=



000
FTUS45 KSLC 192320
TAFENV
TAF
KENV 192320Z 2000/2024 VRB05KT P6SM SKC
      AMD LTD TO CLD VIS AND WIND=



000
FTUS45 KSLC 192320
TAFPVU
TAF
KPVU 192320Z 2000/2024 VRB04KT P6SM SKC
      AMD LTD TO CLD VIS AND WIND=



000
FTUS45 KSLC 192320
TAFPVU
TAF
KPVU 192320Z 2000/2024 VRB04KT P6SM SKC
      AMD LTD TO CLD VIS AND WIND=



000
FTUS45 KSLC 192320
TAFENV
TAF
KENV 192320Z 2000/2024 VRB05KT P6SM SKC
      AMD LTD TO CLD VIS AND WIND=



000
FTUS45 KSLC 192320
TAFSLC
TAF
KSLC 192320Z 2000/2106 33007KT P6SM SKC
     FM200300 15006KT P6SM SKC
     FM202000 33007KT P6SM SCT180=



000
FTUS45 KSLC 192320
TAFLGU
TAF
KLGU 192320Z 2000/2024 VRB05KT P6SM SKC
     FM201200 00000KT P6SM VCFG SCT002
     FM201400 VRB04KT P6SM SKC=



000
FTUS45 KSLC 192320
TAFSLC
TAF
KSLC 192320Z 2000/2106 33007KT P6SM SKC
     FM200300 15006KT P6SM SKC
     FM202000 33007KT P6SM SCT180=



000
FTUS45 KSLC 192320
TAFLGU
TAF
KLGU 192320Z 2000/2024 VRB05KT P6SM SKC
     FM201200 00000KT P6SM VCFG SCT002
     FM201400 VRB04KT P6SM SKC=



000
FTUS45 KSLC 192320
TAFOGD
TAF
KOGD 192320Z 2000/2024 VRB05KT P6SM SKC
     FM200200 17007KT P6SM SKC
     FM202000 VRB04KT P6SM SKC=



000
FTUS45 KSLC 192320
TAFCDC
TAF
KCDC 192320Z 2000/2024 36004KT P6SM SCT120
     FM200100 12005KT P6SM SCT120
     FM201800 22008KT P6SM SKC=



000
FTUS45 KSLC 192320
TAFSGU
TAF
KSGU 192320Z 2000/2024 VRB05KT P6SM SCT120
      AMD LTD TO CLD VIS AND WIND=



000
FTUS45 KSLC 192320
TAFBCE
TAF
KBCE 192320Z 2000/2024 VRB05KT P6SM SCT120
     FM200300 26006KT P6SM FEW120
     FM201500 14008KT P6SM SKC=



000
FTUS45 KSLC 192320
TAFSGU
TAF
KSGU 192320Z 2000/2024 VRB05KT P6SM SCT120
      AMD LTD TO CLD VIS AND WIND=



000
FTUS45 KSLC 192320
TAFCDC
TAF
KCDC 192320Z 2000/2024 36004KT P6SM SCT120
     FM200100 12005KT P6SM SCT120
     FM201800 22008KT P6SM SKC=



000
FTUS45 KSLC 192320
TAFBCE
TAF
KBCE 192320Z 2000/2024 VRB05KT P6SM SCT120
     FM200300 26006KT P6SM FEW120
     FM201500 14008KT P6SM SKC=



000
FTUS45 KSLC 192320
TAFOGD
TAF
KOGD 192320Z 2000/2024 VRB05KT P6SM SKC
     FM200200 17007KT P6SM SKC
     FM202000 VRB04KT P6SM SKC=



000
FTUS45 KSLC 192056 AAA
TAFSLC
TAF AMD
KSLC 192056Z 1921/2024 33007KT P6SM SKC
     FM200300 15006KT P6SM SKC
     FM202000 33007KT P6SM SCT180=



000
FTUS45 KSLC 191720
TAFSGU
TAF
KSGU 191720Z 1918/2018 VRB05KT P6SM SCT120
      AMD LTD TO CLD VIS AND WIND=



000
FTUS45 KSLC 191720
TAFCDC
TAF
KCDC 191720Z 1918/2018 VRB04KT P6SM SKC
     FM192000 10010KT P6SM VCSH SCT070 SCT120
     FM200100 12008KT P6SM VCSH SCT070 BKN120
     FM200300 VRB03KT P6SM FEW120=



000
FTUS45 KSLC 191720
TAFLGU
TAF
KLGU 191720Z 1918/2018 VRB05KT P6SM SKC
     FM201200 00000KT P6SM VCFG SCT002
     FM201400 VRB04KT P6SM SKC=



000
FTUS45 KSLC 191720
TAFPVU
TAF
KPVU 191720Z 1918/2018 VRB04KT P6SM SKC
      AMD LTD TO CLD VIS AND WIND=



000
FTUS45 KSLC 191720
TAFOGD
TAF
KOGD 191720Z 1918/2018 04007KT P6SM SKC
     FM191900 27007KT P6SM SKC
     FM200200 17007KT P6SM SKC=



000
FTUS45 KSLC 191720
TAFPVU
TAF
KPVU 191720Z 1918/2018 VRB04KT P6SM SKC
      AMD LTD TO CLD VIS AND WIND=



000
FTUS45 KSLC 191720
TAFSGU
TAF
KSGU 191720Z 1918/2018 VRB05KT P6SM SCT120
      AMD LTD TO CLD VIS AND WIND=



000
FTUS45 KSLC 191720
TAFLGU
TAF
KLGU 191720Z 1918/2018 VRB05KT P6SM SKC
     FM201200 00000KT P6SM VCFG SCT002
     FM201400 VRB04KT P6SM SKC=



000
FTUS45 KSLC 191720
TAFENV
TAF
KENV 191720Z 1918/2018 VRB05KT P6SM SKC
      AMD LTD TO CLD VIS AND WIND=



000
FTUS45 KSLC 191720
TAFOGD
TAF
KOGD 191720Z 1918/2018 04007KT P6SM SKC
     FM191900 27007KT P6SM SKC
     FM200200 17007KT P6SM SKC=



000
FTUS45 KSLC 191720
TAFSLC
TAF
KSLC 191720Z 1918/2024 14005KT P6SM SKC
     FM191830 33007KT P6SM SKC
     FM200300 15006KT P6SM SKC=



000
FTUS45 KSLC 191720
TAFENV
TAF
KENV 191720Z 1918/2018 VRB05KT P6SM SKC
      AMD LTD TO CLD VIS AND WIND=



000
FTUS45 KSLC 191720
TAFBCE
TAF
KBCE 191720Z 1918/2018 27007KT P6SM SCT120
     FM191800 14007KT P6SM SCT070 SCT100
     FM200300 26006KT P6SM FEW100=



000
FTUS45 KSLC 191720
TAFSLC
TAF
KSLC 191720Z 1918/2024 14005KT P6SM SKC
     FM191830 33007KT P6SM SKC
     FM200300 15006KT P6SM SKC=



000
FTUS45 KSLC 191720
TAFCDC
TAF
KCDC 191720Z 1918/2018 VRB04KT P6SM SKC
     FM192000 10010KT P6SM VCSH SCT070 SCT120
     FM200100 12008KT P6SM VCSH SCT070 BKN120
     FM200300 VRB03KT P6SM FEW120=



000
FTUS45 KSLC 191720
TAFBCE
TAF
KBCE 191720Z 1918/2018 27007KT P6SM SCT120
     FM191800 14007KT P6SM SCT070 SCT100
     FM200300 26006KT P6SM FEW100=



000
FTUS45 KSLC 191506 AAA
TAFSLC
TAF AMD
KSLC 191506Z 1915/2018 14005KT P6SM SKC
     FM191900 33007KT P6SM FEW140
     FM200300 15006KT P6SM FEW120=



000
FTUS45 KSLC 191506 AAA
TAFSLC
TAF AMD
KSLC 191506Z 1915/2018 14005KT P6SM SKC
     FM191900 33007KT P6SM FEW140
     FM200300 15006KT P6SM FEW120=



000
FTUS45 KSLC 191120
TAFOGD
TAF
KOGD 191120Z 1912/2012 17007KT P6SM SCT200
     FM191900 27007KT P6SM SCT200
     FM200200 17007KT P6SM FEW140=



000
FTUS45 KSLC 191120
TAFSGU
TAF
KSGU 191120Z 1912/2012 VRB05KT P6SM SCT120
      AMD LTD TO CLD VIS AND WIND=



000
FTUS45 KSLC 191120
TAFCDC
TAF
KCDC 191120Z 1912/2012 VRB04KT P6SM SCT120
     FM192000 25006KT P6SM VCSH SCT070 BKN090
     FM200100 VRB04KT P6SM VCSH SCT070 BKN090
     FM200600 VRB03KT P6SM FEW120=



000
FTUS45 KSLC 191120
TAFPVU
TAF
KPVU 191120Z 1912/2012 VRB04KT P6SM SCT200
      AMD LTD TO CLD VIS AND WIND=



000
FTUS45 KSLC 191120
TAFLGU
TAF
KLGU 191120Z 1912/2012 VRB05KT P6SM SCT200=



000
FTUS45 KSLC 191120
TAFENV
TAF
KENV 191120Z 1912/2012 VRB05KT P6SM SCT200
      AMD LTD TO CLD VIS AND WIND=



000
FTUS45 KSLC 191120
TAFENV
TAF
KENV 191120Z 1912/2012 VRB05KT P6SM SCT200
      AMD LTD TO CLD VIS AND WIND=



000
FTUS45 KSLC 191120
TAFSLC
TAF
KSLC 191120Z 1912/2018 16006KT P6SM SKC
     FM191900 33007KT P6SM FEW140
     FM200300 15006KT P6SM FEW120=



000
FTUS45 KSLC 191120
TAFBCE
TAF
KBCE 191120Z 1912/2012 27007KT P6SM SCT120
     FM191800 14007KT P6SM SCT070 BKN090
     FM200300 26006KT P6SM FEW120=



000
FTUS45 KSLC 191120
TAFPVU
TAF
KPVU 191120Z 1912/2012 VRB04KT P6SM SCT200
      AMD LTD TO CLD VIS AND WIND=



000
FTUS45 KSLC 191120
TAFOGD
TAF
KOGD 191120Z 1912/2012 17007KT P6SM SCT200
     FM191900 27007KT P6SM SCT200
     FM200200 17007KT P6SM FEW140=



000
FTUS45 KSLC 191120
TAFLGU
TAF
KLGU 191120Z 1912/2012 VRB05KT P6SM SCT200=



000
FTUS45 KSLC 191120
TAFSLC
TAF
KSLC 191120Z 1912/2018 16006KT P6SM SKC
     FM191900 33007KT P6SM FEW140
     FM200300 15006KT P6SM FEW120=



000
FTUS45 KSLC 190838 AAA
TAFSLC
TAF AMD
KSLC 190838Z 1909/2012 16006KT P6SM SKC
     FM191900 33007KT P6SM FEW140
     FM200300 15006KT P6SM FEW120=



000
FTUS45 KSLC 190838 AAA
TAFSLC
TAF AMD
KSLC 190838Z 1909/2012 16006KT P6SM SKC
     FM191900 33007KT P6SM FEW140
     FM200300 15006KT P6SM FEW120=



000
FTUS45 KSLC 190520
TAFSLC
TAF
KSLC 190520Z 1906/2012 16006KT P6SM FEW100
     FM191900 33007KT P6SM FEW140
     FM200300 15006KT P6SM FEW120=



000
FTUS45 KSLC 190520
TAFOGD
TAF
KOGD 190520Z 1906/2006 17007KT P6SM SCT180
     FM191900 27007KT P6SM SCT180
     FM200200 17007KT P6SM FEW140=



000
FTUS45 KSLC 190520
TAFCDC
TAF
KCDC 190520Z 1906/2006 VRB04KT P6SM BKN120
     FM192000 25006KT P6SM VCSH SCT070 BKN090
     FM200100 VRB03KT P6SM VCSH SCT070 BKN090=



000
FTUS45 KSLC 190520
TAFENV
TAF
KENV 190520Z 1906/2006 VRB05KT P6SM SCT200
      AMD LTD TO CLD VIS AND WIND=



000
FTUS45 KSLC 190520
TAFLGU
TAF
KLGU 190520Z 1906/2006 VRB05KT P6SM SCT200=



000
FTUS45 KSLC 190520
TAFPVU
TAF
KPVU 190520Z 1906/2006 VRB05KT P6SM SCT180
      AMD LTD TO CLD VIS AND WIND=



000
FTUS45 KSLC 190520
TAFENV
TAF
KENV 190520Z 1906/2006 VRB05KT P6SM SCT200
      AMD LTD TO CLD VIS AND WIND=



000
FTUS45 KSLC 190520
TAFSGU
TAF
KSGU 190520Z 1906/2006 VRB04KT P6SM SCT120
      AMD LTD TO CLD VIS AND WIND=



000
FTUS45 KSLC 190520
TAFBCE
TAF
KBCE 190520Z 1906/2006 27007KT P6SM FEW120
     FM191700 14007KT P6SM SCT070
     FM200100 VRB04KT P6SM FEW070 SCT090=



000
FTUS45 KSLC 190520
TAFSGU
TAF
KSGU 190520Z 1906/2006 VRB04KT P6SM SCT120
      AMD LTD TO CLD VIS AND WIND=



000
FTUS45 KSLC 190520
TAFPVU
TAF
KPVU 190520Z 1906/2006 VRB05KT P6SM SCT180
      AMD LTD TO CLD VIS AND WIND=



000
FTUS45 KSLC 190520
TAFLGU
TAF
KLGU 190520Z 1906/2006 VRB05KT P6SM SCT200=



000
FTUS45 KSLC 190520
TAFOGD
TAF
KOGD 190520Z 1906/2006 17007KT P6SM SCT180
     FM191900 27007KT P6SM SCT180
     FM200200 17007KT P6SM FEW140=



000
FTUS45 KSLC 190520
TAFSLC
TAF
KSLC 190520Z 1906/2012 16006KT P6SM FEW100
     FM191900 33007KT P6SM FEW140
     FM200300 15006KT P6SM FEW120=



000
FTUS45 KSLC 190520
TAFCDC
TAF
KCDC 190520Z 1906/2006 VRB04KT P6SM BKN120
     FM192000 25006KT P6SM VCSH SCT070 BKN090
     FM200100 VRB03KT P6SM VCSH SCT070 BKN090=



000
FTUS45 KSLC 190520
TAFBCE
TAF
KBCE 190520Z 1906/2006 27007KT P6SM FEW120
     FM191700 14007KT P6SM SCT070
     FM200100 VRB04KT P6SM FEW070 SCT090=



000
FTUS45 KSLC 190339 AAB
TAFCDC
TAF AMD
KCDC 190339Z 1904/1924 14008KT P6SM BKN100
     FM190900 15007KT P6SM SCT120=



000
FTUS45 KSLC 190339 AAB
TAFCDC
TAF AMD
KCDC 190339Z 1904/1924 14008KT P6SM BKN100
     FM190900 15007KT P6SM SCT120=



000
FTUS45 KSLC 190339 AAB
TAFCDC
TAF AMD
KCDC 190339Z 1904/1924 14008KT P6SM BKN100
     FM190900 15007KT P6SM SCT120=



000
FTUS45 KSLC 190339 AAB
TAFCDC
TAF AMD
KCDC 190339Z 1904/1924 14008KT P6SM BKN100
     FM190900 15007KT P6SM SCT120=



000
FTUS45 KSLC 190253 AAB
TAFSLC
TAF AMD
KSLC 190253Z 1903/2006 16006KT P6SM FEW100
     FM191900 33007KT P6SM SKC=



000
FTUS45 KSLC 190253 AAB
TAFSLC
TAF AMD
KSLC 190253Z 1903/2006 16006KT P6SM FEW100
     FM191900 33007KT P6SM SKC=



000
FTUS45 KSLC 190146 AAA
TAFCDC
TAF AMD
KCDC 190146Z 1902/1924 11014G17KT P6SM -SHRA SCT040 OVC060
      TEMPO 1902/1903 4SM RA SCT035 OVC050
     FM190400 14008KT P6SM SCT050 BKN100
     FM190900 15007KT P6SM SCT120=



000
FTUS45 KSLC 190146 AAA
TAFCDC
TAF AMD
KCDC 190146Z 1902/1924 11014G17KT P6SM -SHRA SCT040 OVC060
      TEMPO 1902/1903 4SM RA SCT035 OVC050
     FM190400 14008KT P6SM SCT050 BKN100
     FM190900 15007KT P6SM SCT120=



000
FTUS45 KSLC 182325
TAFOGD
TAF
KOGD 182325Z 1900/1924 29006KT P6SM SCT200
     FM190300 17006KT P6SM SCT200
     FM191800 27007KT P6SM SCT200=



000
FTUS45 KSLC 182325
TAFLGU
TAF
KLGU 182325Z 1900/1924 VRB05KT P6SM SCT200=



000
FTUS45 KSLC 182325
TAFBCE
TAF
KBCE 182325Z 1900/1924 13007KT P6SM VCSH SCT050 BKN080
     FM190100 VRB04KT P6SM FEW050 BKN090
     FM191500 14007KT P6SM SCT090=



000
FTUS45 KSLC 182325
TAFPVU
TAF
KPVU 182325Z 1900/1924 VRB04KT P6SM SCT200
      AMD LTD TO CLD VIS AND WIND=



000
FTUS45 KSLC 182325
TAFENV
TAF
KENV 182325Z 1900/1924 VRB05KT P6SM SCT200
      AMD LTD TO CLD VIS AND WIND=



000
FTUS45 KSLC 182325
TAFSLC
TAF
KSLC 182325Z 1900/2006 31007KT P6SM SCT200
     FM190300 16006KT P6SM SCT200
     FM191900 33007KT P6SM SKC=



000
FTUS45 KSLC 182325
TAFENV
TAF
KENV 182325Z 1900/1924 VRB05KT P6SM SCT200
      AMD LTD TO CLD VIS AND WIND=



000
FTUS45 KSLC 182325
TAFPVU
TAF
KPVU 182325Z 1900/1924 VRB04KT P6SM SCT200
      AMD LTD TO CLD VIS AND WIND=



000
FTUS45 KSLC 182325
TAFCDC
TAF
KCDC 182325Z 1900/1924 11014G17KT P6SM -SHRA BKN070 BKN100
     FM190200 VRB03KT P6SM SCT100=



000
FTUS45 KSLC 182325
TAFLGU
TAF
KLGU 182325Z 1900/1924 VRB05KT P6SM SCT200=



000
FTUS45 KSLC 182325
TAFSGU
TAF
KSGU 182325Z 1900/1924 VRB05KT P6SM -SHRA SCT100 BKN120
     FM190100 VRB03KT P6SM SCT120
      AMD LTD TO CLD VIS AND WIND=



000
FTUS45 KSLC 182325
TAFOGD
TAF
KOGD 182325Z 1900/1924 29006KT P6SM SCT200
     FM190300 17006KT P6SM SCT200
     FM191800 27007KT P6SM SCT200=



000
FTUS45 KSLC 182325
TAFBCE
TAF
KBCE 182325Z 1900/1924 13007KT P6SM VCSH SCT050 BKN080
     FM190100 VRB04KT P6SM FEW050 BKN090
     FM191500 14007KT P6SM SCT090=



000
FTUS45 KSLC 182325
TAFSLC
TAF
KSLC 182325Z 1900/2006 31007KT P6SM SCT200
     FM190300 16006KT P6SM SCT200
     FM191900 33007KT P6SM SKC=



000
FTUS45 KSLC 182325
TAFCDC
TAF
KCDC 182325Z 1900/1924 11014G17KT P6SM -SHRA BKN070 BKN100
     FM190200 VRB03KT P6SM SCT100=



000
FTUS45 KSLC 182325
TAFSGU
TAF
KSGU 182325Z 1900/1924 VRB05KT P6SM -SHRA SCT100 BKN120
     FM190100 VRB03KT P6SM SCT120
      AMD LTD TO CLD VIS AND WIND=



000
FTUS45 KSLC 182058 AAA
TAFSLC
TAF AMD
KSLC 182058Z 1821/1924 31007KT P6SM SCT200
     FM190300 16006KT P6SM SCT200
     FM191900 33007KT P6SM SKC=



000
FTUS45 KSLC 181724
TAFSLC
TAF
KSLC 181724Z 1818/1924 14003KT P6SM FEW140 SCT200
     FM181900 33007KT P6SM FEW140 SCT200
     FM190300 16006KT P6SM FEW140
     FM191900 33007KT P6SM SKC=



000
FTUS45 KSLC 181724
TAFOGD
TAF
KOGD 181724Z 1818/1918 16006KT P6SM FEW140 SCT200
     FM181900 29006KT P6SM FEW140 SCT200
     FM190300 17006KT P6SM FEW140=



000
FTUS45 KSLC 181724
TAFCDC
TAF
KCDC 181724Z 1818/1918 VRB04KT P6SM VCSH SCT080 BKN120
     FM182100 VRB04KT P6SM VCSH SCT070 BKN100
     FM190400 VRB03KT P6SM SCT100=



000
FTUS45 KSLC 181724
TAFLGU
TAF
KLGU 181724Z 1818/1918 VRB05KT P6SM SCT200=



000
FTUS45 KSLC 181724
TAFENV
TAF
KENV 181724Z 1818/1918 VRB05KT P6SM SKC
     FM181900 12006KT P6SM SCT200
     FM190100 VRB05KT P6SM SKC
      AMD LTD TO CLD VIS AND WIND=



000
FTUS45 KSLC 181724
TAFBCE
TAF
KBCE 181724Z 1818/1918 15007KT P6SM OVC080
     FM182000 15007KT P6SM VCSH SCT050 BKN090
     FM190100 VRB04KT P6SM FEW050 BKN090
     FM191500 14007KT P6SM SCT090=



000
FTUS45 KSLC 181724
TAFPVU
TAF
KPVU 181724Z 1818/1918 VRB04KT P6SM FEW140 SCT200
      AMD LTD TO CLD VIS AND WIND=



000
FTUS45 KSLC 181724
TAFSGU
TAF
KSGU 181724Z 1818/1918 VRB04KT P6SM SCT100 BKN140
     FM182000 VRB05KT P6SM VCSH SCT100 BKN120
     FM190100 VRB03KT P6SM SCT120
      AMD LTD TO CLD VIS AND WIND=



000
FTUS45 KSLC 181724
TAFLGU
TAF
KLGU 181724Z 1818/1918 VRB05KT P6SM SCT200=



000
FTUS45 KSLC 181724
TAFSLC
TAF
KSLC 181724Z 1818/1924 14003KT P6SM FEW140 SCT200
     FM181900 33007KT P6SM FEW140 SCT200
     FM190300 16006KT P6SM FEW140
     FM191900 33007KT P6SM SKC=



000
FTUS45 KSLC 181724
TAFENV
TAF
KENV 181724Z 1818/1918 VRB05KT P6SM SKC
     FM181900 12006KT P6SM SCT200
     FM190100 VRB05KT P6SM SKC
      AMD LTD TO CLD VIS AND WIND=



000
FTUS45 KSLC 181724
TAFOGD
TAF
KOGD 181724Z 1818/1918 16006KT P6SM FEW140 SCT200
     FM181900 29006KT P6SM FEW140 SCT200
     FM190300 17006KT P6SM FEW140=



000
FTUS45 KSLC 181724
TAFPVU
TAF
KPVU 181724Z 1818/1918 VRB04KT P6SM FEW140 SCT200
      AMD LTD TO CLD VIS AND WIND=



000
FTUS45 KSLC 181724
TAFCDC
TAF
KCDC 181724Z 1818/1918 VRB04KT P6SM VCSH SCT080 BKN120
     FM182100 VRB04KT P6SM VCSH SCT070 BKN100
     FM190400 VRB03KT P6SM SCT100=



000
FTUS45 KSLC 181724
TAFSGU
TAF
KSGU 181724Z 1818/1918 VRB04KT P6SM SCT100 BKN140
     FM182000 VRB05KT P6SM VCSH SCT100 BKN120
     FM190100 VRB03KT P6SM SCT120
      AMD LTD TO CLD VIS AND WIND=



000
FTUS45 KSLC 181724
TAFBCE
TAF
KBCE 181724Z 1818/1918 15007KT P6SM OVC080
     FM182000 15007KT P6SM VCSH SCT050 BKN090
     FM190100 VRB04KT P6SM FEW050 BKN090
     FM191500 14007KT P6SM SCT090=



000
FTUS45 KSLC 181455 AAA
TAFSLC
TAF AMD
KSLC 181455Z 1815/1918 14006KT P6SM FEW140 SCT200
     FM181900 33007KT P6SM FEW140 SCT200
     FM190300 16006KT P6SM SCT140 SCT200=



000
FTUS45 KSLC 181455 AAA
TAFSLC
TAF AMD
KSLC 181455Z 1815/1918 14006KT P6SM FEW140 SCT200
     FM181900 33007KT P6SM FEW140 SCT200
     FM190300 16006KT P6SM SCT140 SCT200=



000
FTUS45 KSLC 181120
TAFCDC
TAF
KCDC 181120Z 1812/1912 VRB04KT P6SM BKN120
     FM182100 VRB04KT P6SM VCSH SCT070 BKN100
     FM190400 VRB03KT P6SM SCT100=



000
FTUS45 KSLC 181120
TAFOGD
TAF
KOGD 181120Z 1812/1912 16006KT P6SM BKN200
     FM181900 29006KT P6SM FEW140 SCT200
     FM190300 17006KT P6SM SCT200=



000
FTUS45 KSLC 181120
TAFLGU
TAF
KLGU 181120Z 1812/1912 VRB05KT P6SM SCT200=



000
FTUS45 KSLC 181120
TAFLGU
TAF
KLGU 181120Z 1812/1912 VRB05KT P6SM SCT200=



000
FTUS45 KSLC 181120
TAFENV
TAF
KENV 181120Z 1812/1912 VRB05KT P6SM SCT200
     FM181700 12006KT P6SM SCT200
     FM190100 VRB05KT P6SM SCT200
      AMD LTD TO CLD VIS AND WIND=



000
FTUS45 KSLC 181120
TAFPVU
TAF
KPVU 181120Z 1812/1912 VRB04KT P6SM FEW140 BKN200
      AMD LTD TO CLD VIS AND WIND=



000
FTUS45 KSLC 181120
TAFSLC
TAF
KSLC 181120Z 1812/1918 14006KT P6SM BKN200
     FM181900 33007KT P6SM FEW140 SCT200
     FM190300 16006KT P6SM SCT140 SCT200=



000
FTUS45 KSLC 181120
TAFCDC
TAF
KCDC 181120Z 1812/1912 VRB04KT P6SM BKN120
     FM182100 VRB04KT P6SM VCSH SCT070 BKN100
     FM190400 VRB03KT P6SM SCT100=



000
FTUS45 KSLC 181120
TAFSGU
TAF
KSGU 181120Z 1812/1912 VRB04KT P6SM BKN140
     FM182000 VRB05KT P6SM VCSH SCT100 BKN120
     FM190100 VRB03KT P6SM FEW120
      AMD LTD TO CLD VIS AND WIND=



000
FTUS45 KSLC 181120
TAFENV
TAF
KENV 181120Z 1812/1912 VRB05KT P6SM SCT200
     FM181700 12006KT P6SM SCT200
     FM190100 VRB05KT P6SM SCT200
      AMD LTD TO CLD VIS AND WIND=



000
FTUS45 KSLC 181120
TAFBCE
TAF
KBCE 181120Z 1812/1912 24006KT P6SM SCT100
     FM181700 15007KT P6SM SCT070 BKN100
     FM182000 15007KT P6SM VCSH SCT050 BKN090
     FM190100 VRB04KT P6SM FEW050 BKN090=



000
FTUS45 KSLC 181120
TAFOGD
TAF
KOGD 181120Z 1812/1912 16006KT P6SM BKN200
     FM181900 29006KT P6SM FEW140 SCT200
     FM190300 17006KT P6SM SCT200=



000
FTUS45 KSLC 181120
TAFBCE
TAF
KBCE 181120Z 1812/1912 24006KT P6SM SCT100
     FM181700 15007KT P6SM SCT070 BKN100
     FM182000 15007KT P6SM VCSH SCT050 BKN090
     FM190100 VRB04KT P6SM FEW050 BKN090=



000
FTUS45 KSLC 181120
TAFLGU
TAF
KLGU 181120Z 1812/1912 VRB05KT P6SM SCT200=



000
FTUS45 KSLC 181120
TAFPVU
TAF
KPVU 181120Z 1812/1912 VRB04KT P6SM FEW140 BKN200
      AMD LTD TO CLD VIS AND WIND=



000
FTUS45 KSLC 181120
TAFOGD
TAF
KOGD 181120Z 1812/1912 16006KT P6SM BKN200
     FM181900 29006KT P6SM FEW140 SCT200
     FM190300 17006KT P6SM SCT200=



000
FTUS45 KSLC 181120
TAFENV
TAF
KENV 181120Z 1812/1912 VRB05KT P6SM SCT200
     FM181700 12006KT P6SM SCT200
     FM190100 VRB05KT P6SM SCT200
      AMD LTD TO CLD VIS AND WIND=



000
FTUS45 KSLC 181120
TAFSLC
TAF
KSLC 181120Z 1812/1918 14006KT P6SM BKN200
     FM181900 33007KT P6SM FEW140 SCT200
     FM190300 16006KT P6SM SCT140 SCT200=



000
FTUS45 KSLC 181120
TAFSGU
TAF
KSGU 181120Z 1812/1912 VRB04KT P6SM BKN140
     FM182000 VRB05KT P6SM VCSH SCT100 BKN120
     FM190100 VRB03KT P6SM FEW120
      AMD LTD TO CLD VIS AND WIND=



000
FTUS45 KSLC 181120
TAFCDC
TAF
KCDC 181120Z 1812/1912 VRB04KT P6SM BKN120
     FM182100 VRB04KT P6SM VCSH SCT070 BKN100
     FM190400 VRB03KT P6SM SCT100=



000
FTUS45 KSLC 181120
TAFPVU
TAF
KPVU 181120Z 1812/1912 VRB04KT P6SM FEW140 BKN200
      AMD LTD TO CLD VIS AND WIND=



000
FTUS45 KSLC 181120
TAFSLC
TAF
KSLC 181120Z 1812/1918 14006KT P6SM BKN200
     FM181900 33007KT P6SM FEW140 SCT200
     FM190300 16006KT P6SM SCT140 SCT200=



000
FTUS45 KSLC 181120
TAFOGD
TAF
KOGD 181120Z 1812/1912 16006KT P6SM BKN200
     FM181900 29006KT P6SM FEW140 SCT200
     FM190300 17006KT P6SM SCT200=



000
FTUS45 KSLC 181120
TAFSLC
TAF
KSLC 181120Z 1812/1918 14006KT P6SM BKN200
     FM181900 33007KT P6SM FEW140 SCT200
     FM190300 16006KT P6SM SCT140 SCT200=



000
FTUS45 KSLC 181120
TAFENV
TAF
KENV 181120Z 1812/1912 VRB05KT P6SM SCT200
     FM181700 12006KT P6SM SCT200
     FM190100 VRB05KT P6SM SCT200
      AMD LTD TO CLD VIS AND WIND=



000
FTUS45 KSLC 181120
TAFBCE
TAF
KBCE 181120Z 1812/1912 24006KT P6SM SCT100
     FM181700 15007KT P6SM SCT070 BKN100
     FM182000 15007KT P6SM VCSH SCT050 BKN090
     FM190100 VRB04KT P6SM FEW050 BKN090=



000
FTUS45 KSLC 181120
TAFSGU
TAF
KSGU 181120Z 1812/1912 VRB04KT P6SM BKN140
     FM182000 VRB05KT P6SM VCSH SCT100 BKN120
     FM190100 VRB03KT P6SM FEW120
      AMD LTD TO CLD VIS AND WIND=



000
FTUS45 KSLC 181120
TAFCDC
TAF
KCDC 181120Z 1812/1912 VRB04KT P6SM BKN120
     FM182100 VRB04KT P6SM VCSH SCT070 BKN100
     FM190400 VRB03KT P6SM SCT100=



000
FTUS45 KSLC 181120
TAFPVU
TAF
KPVU 181120Z 1812/1912 VRB04KT P6SM FEW140 BKN200
      AMD LTD TO CLD VIS AND WIND=



000
FTUS45 KSLC 181120
TAFSGU
TAF
KSGU 181120Z 1812/1912 VRB04KT P6SM BKN140
     FM182000 VRB05KT P6SM VCSH SCT100 BKN120
     FM190100 VRB03KT P6SM FEW120
      AMD LTD TO CLD VIS AND WIND=



000
FTUS45 KSLC 181120
TAFLGU
TAF
KLGU 181120Z 1812/1912 VRB05KT P6SM SCT200=



000
FTUS45 KSLC 181120
TAFBCE
TAF
KBCE 181120Z 1812/1912 24006KT P6SM SCT100
     FM181700 15007KT P6SM SCT070 BKN100
     FM182000 15007KT P6SM VCSH SCT050 BKN090
     FM190100 VRB04KT P6SM FEW050 BKN090=



000
FTUS45 KSLC 180808 AAA
TAFSLC
TAF AMD
KSLC 180808Z 1808/1912 14006KT P6SM SCT200
     FM181900 33007KT P6SM FEW140 SCT200
     FM190300 16006KT P6SM SCT140 SCT200=



000
FTUS45 KSLC 180808 AAA
TAFSLC
TAF AMD
KSLC 180808Z 1808/1912 14006KT P6SM SCT200
     FM181900 33007KT P6SM FEW140 SCT200
     FM190300 16006KT P6SM SCT140 SCT200=



000
FTUS45 KSLC 180523
TAFBCE
TAF
KBCE 180523Z 1806/1906 26006KT P6SM SCT070 BKN110
     FM181800 15007KT P6SM VCSH SCT050 BKN090
     FM190100 VRB04KT P6SM FEW050 BKN090=



000
FTUS45 KSLC 180523
TAFSGU
TAF
KSGU 180523Z 1806/1906 VRB04KT P6SM BKN140
     FM181900 VRB05KT P6SM SCT100 BKN120
      AMD LTD TO CLD VIS AND WIND=



000
FTUS45 KSLC 180523
TAFOGD
TAF
KOGD 180523Z 1806/1906 16006KT P6SM FEW120 BKN200
     FM181900 29006KT P6SM FEW120 SCT200
     FM190300 17006KT P6SM SCT200=



000
FTUS45 KSLC 180523
TAFCDC
TAF
KCDC 180523Z 1806/1906 VRB04KT P6SM BKN120
     FM181800 VRB04KT P6SM VCSH SCT070 BKN100=



000
FTUS45 KSLC 180523
TAFSLC
TAF
KSLC 180523Z 1806/1912 15006KT P6SM SCT200
     FM181900 33007KT P6SM FEW140 SCT200
     FM190300 16006KT P6SM SCT140 SCT200=



000
FTUS45 KSLC 180523
TAFOGD
TAF
KOGD 180523Z 1806/1906 16006KT P6SM FEW120 BKN200
     FM181900 29006KT P6SM FEW120 SCT200
     FM190300 17006KT P6SM SCT200=



000
FTUS45 KSLC 180523
TAFSLC
TAF
KSLC 180523Z 1806/1912 15006KT P6SM SCT200
     FM181900 33007KT P6SM FEW140 SCT200
     FM190300 16006KT P6SM SCT140 SCT200=



000
FTUS45 KSLC 180523
TAFSGU
TAF
KSGU 180523Z 1806/1906 VRB04KT P6SM BKN140
     FM181900 VRB05KT P6SM SCT100 BKN120
      AMD LTD TO CLD VIS AND WIND=



000
FTUS45 KSLC 180523
TAFENV
TAF
KENV 180523Z 1806/1906 VRB04KT P6SM SCT200
     FM181700 12006KT P6SM SCT200
     FM190100 VRB05KT P6SM SCT200
      AMD LTD TO CLD VIS AND WIND=



000
FTUS45 KSLC 180523
TAFENV
TAF
KENV 180523Z 1806/1906 VRB04KT P6SM SCT200
     FM181700 12006KT P6SM SCT200
     FM190100 VRB05KT P6SM SCT200
      AMD LTD TO CLD VIS AND WIND=



000
FTUS45 KSLC 180523
TAFPVU
TAF
KPVU 180523Z 1806/1906 VRB04KT P6SM FEW140 BKN200
      AMD LTD TO CLD VIS AND WIND=



000
FTUS45 KSLC 180523
TAFCDC
TAF
KCDC 180523Z 1806/1906 VRB04KT P6SM BKN120
     FM181800 VRB04KT P6SM VCSH SCT070 BKN100=



000
FTUS45 KSLC 180523
TAFPVU
TAF
KPVU 180523Z 1806/1906 VRB04KT P6SM FEW140 BKN200
      AMD LTD TO CLD VIS AND WIND=



000
FTUS45 KSLC 180523
TAFLGU
TAF
KLGU 180523Z 1806/1906 VRB05KT P6SM SCT200=



000
FTUS45 KSLC 180523
TAFLGU
TAF
KLGU 180523Z 1806/1906 VRB05KT P6SM SCT200=



000
FTUS45 KSLC 180523
TAFBCE
TAF
KBCE 180523Z 1806/1906 26006KT P6SM SCT070 BKN110
     FM181800 15007KT P6SM VCSH SCT050 BKN090
     FM190100 VRB04KT P6SM FEW050 BKN090=



    US Dept of Commerce
    National Oceanic and Atmospheric Administration
    National Weather Service
    1325 East West Highway
    Silver Spring, MD 20910
    Page Author: NWS Internet Services Team
Disclaimer
Information Quality
Credits
Glossary
Privacy Policy
Freedom of Information Act (FOIA)
About Us
Career Opportunities